Portada
METAR-TAF:

METAR-TAF

Aeropuertos :

Aeropuerto Internacional Ivato

Antananarivo, Madagascar

latitud: 18-48S, longitud: 047-29E, altitud: 1279 m

Observación

El informe se hizo hace 22 minutos, a las 14:30 UTC
Viento 8 kt del este
Temperatura 23°C
Humedad 73%
Presión 1019 hPa
Visibilidad 10 km o más
Escasas nubes a una altura de 1700 ft

METAR: FMMI 241430Z 10008KT 9999 FEW017 23/18 Q1019 NOSIG

Hora: 17:52 (14:52 UTC)

Pronóstico

El informe se hizo hace 3 horas y 52 minutos, a las 11:00 UTC
Pronóstico válido del 24 a las 12 UTC al 25 a las 18 UTC
Viento 10 kt del este-sureste
Visibilidad 10 km o más
Nubes dispersas a una altura de 1700 ft
Cielo nuboso a una altura de 2000 ft

TAF: FMMI 241100Z 2412/2518 12010KT 9999 SCT017 BKN020

Observaciones y pronósticos meteorológicos de más de 4000 aeropuertos (mensajes METAR y TAF).

Los puntos amarillos y rojos representan las estaciones disponibles.

Ponga el ratón en el punto deseado para ver el nombre de la estación.

Haga clic para ver las observaciones y los pronósticos meteorológicos.

Para cambiar el mapa : haga clic en los botones verdes con una cruz de color negro para hacer un zoom, en el botón verde con un guión para alejar o en las flechas verdes para mapas adyacentes.


METAR-TAF: